Time;durP1;ratioP1;P1;durP2;ratioP2;P2;SDS_P1;SDS_P2;PMS_P1;PMS_P2;Temp;Humidity;BMP_temperature;BMP_pressure;BME280_temperature;BME280_humidity;BME280_pressure;Samples;Min_cycle;Max_cycle;Signal;HPM_P1;HPM_P2
2023/04/18 00:00:00;;;;;;;15.00;11.68;;;332.80;2048.00;;;;;;5036478;28;20021;-81
2023/04/18 00:02:27;;;;;;;17.42;13.10;;;332.80;2329.60;;;;;;5053672;28;20370;-80
2023/04/18 00:04:53;;;;;;;17.83;13.88;;;332.90;2329.60;;;;;;5036269;28;20025;-82
2023/04/18 00:07:19;;;;;;;15.77;13.05;;;308.10;2304.00;;;;;;5036519;28;20487;-80
2023/04/18 00:09:45;;;;;;;17.70;13.35;;;332.80;2329.60;;;;;;5036782;28;20112;-80
2023/04/18 00:12:11;;;;;;;16.05;12.93;;;332.80;2329.60;;;;;;5036677;28;20444;-77
2023/04/18 00:14:37;;;;;;;17.67;12.80;;;332.90;2201.60;;;;;;5036300;28;20021;-78
2023/04/18 00:17:07;;;;;;;33.65;21.58;;;333.10;2329.60;;;;;;5036432;28;20029;-79
2023/04/18 00:19:33;;;;;;;23.17;17.40;;;333.00;2176.00;;;;;;5036665;28;20021;-80
2023/04/18 00:21:59;;;;;;;34.17;22.90;;;333.10;2329.60;;;;;;5054022;28;20021;-80
2023/04/18 00:24:25;;;;;;;35.15;24.40;;;333.00;2150.40;;;;;;5036541;28;20590;-79
2023/04/18 00:26:51;;;;;;;30.02;22.52;;;332.90;2329.60;;;;;;5053228;28;20041;-81
2023/04/18 00:29:17;;;;;;;29.77;21.17;;;332.90;2329.60;;;;;;5035978;28;20029;-80
2023/04/18 00:31:42;;;;;;;24.70;19.02;;;332.80;2124.80;;;;;;5035303;28;20025;-78
2023/04/18 00:34:08;;;;;;;47.63;32.55;;;332.80;2329.60;;;;;;5053437;28;20029;-79
2023/04/18 00:36:34;;;;;;;36.33;26.08;;;332.90;2329.60;;;;;;5036017;28;20495;-80
2023/04/18 00:39:00;;;;;;;27.60;19.13;;;333.00;2329.60;;;;;;5053688;28;20408;-79
2023/04/18 00:41:27;;;;;;;25.23;18.15;;;333.10;1971.20;;;;;;5035950;28;20021;-80
2023/04/18 00:43:55;;;;;;;27.50;20.33;;;333.00;2329.60;;;;;;5036167;28;20029;-77
2023/04/18 00:46:21;;;;;;;48.03;27.33;;;333.00;2329.60;;;;;;5036059;28;20033;-79
2023/04/18 00:48:48;;;;;;;59.50;31.55;;;332.90;2329.60;;;;;;5035743;28;20032;-80
2023/04/18 00:51:14;;;;;;;46.97;27.52;;;333.00;2278.40;;;;;;5035920;28;20021;-80
2023/04/18 00:53:41;;;;;;;27.63;19.98;;;333.10;2329.60;;;;;;5036090;28;20036;-78
2023/04/18 00:56:07;;;;;;;22.05;16.77;;;333.10;2329.60;;;;;;5035445;28;20041;-78
2023/04/18 00:58:33;;;;;;;24.65;16.30;;;333.20;2329.60;;;;;;5035815;28;20033;-81
2023/04/18 01:00:59;;;;;;;18.10;13.90;;;333.20;2329.60;;;;;;5035809;28;20459;-78
2023/04/18 01:03:25;;;;;;;17.48;12.23;;;333.20;2329.60;;;;;;5035477;28;20036;-80
2023/04/18 01:05:52;;;;;;;15.75;12.13;;;333.10;2329.60;;;;;;5053880;28;20506;-78
2023/04/18 01:08:20;;;;;;;16.83;11.20;;;332.90;2329.60;;;;;;5035612;28;20108;-80
2023/04/18 01:10:46;;;;;;;13.75;11.20;;;332.80;2329.60;;;;;;5035440;28;20025;-79
2023/04/18 01:13:13;;;;;;;15.63;11.55;;;332.90;2329.60;;;;;;5035609;28;20060;-79
2023/04/18 01:15:44;;;;;;;13.82;11.40;;;333.00;2329.60;;;;;;5052904;28;20396;-80
2023/04/18 01:18:11;;;;;;;15.32;12.20;;;332.90;2329.60;;;;;;5035482;28;20064;-80
2023/04/18 01:20:40;;;;;;;15.27;12.13;;;307.80;2304.00;;;;;;5035806;28;20025;-78
2023/04/18 01:23:09;;;;;;;14.23;11.88;;;332.80;2329.60;;;;;;5034870;28;20025;-80
2023/04/18 01:25:34;;;;;;;21.05;15.75;;;332.80;2329.60;;;;;;5035679;28;20033;-80
2023/04/18 01:28:01;;;;;;;19.27;12.65;;;308.10;2304.00;;;;;;5035467;28;20036;-81
2023/04/18 01:30:27;;;;;;;15.45;12.30;;;332.80;2329.60;;;;;;5035476;28;20047;-81
2023/04/18 01:32:53;;;;;;;15.05;12.57;;;332.90;2329.60;;;;;;5035558;28;20457;-79
2023/04/18 01:35:19;;;;;;;15.98;13.02;;;332.80;2329.60;;;;;;5035665;28;20029;-81
2023/04/18 01:37:45;;;;;;;21.52;12.13;;;332.90;2329.60;;;;;;5034869;28;20059;-79
2023/04/18 01:40:11;;;;;;;15.93;11.68;;;332.90;2329.60;;;;;;5035438;28;20048;-79
2023/04/18 01:42:36;;;;;;;19.17;14.32;;;332.90;2329.60;;;;;;5035567;28;20048;-83
2023/04/18 01:45:03;;;;;;;18.85;12.98;;;332.90;2329.60;;;;;;5035226;28;20025;-83
2023/04/18 01:47:29;;;;;;;10.55;8.18;;;333.00;2329.60;;;;;;5035001;28;20040;-81
2023/04/18 01:49:55;;;;;;;10.00;7.57;;;333.00;2329.60;;;;;;5035435;28;20033;-77
2023/04/18 01:52:20;;;;;;;11.32;7.45;;;333.10;2329.60;;;;;;5052659;28;20118;-80
2023/04/18 01:54:46;;;;;;;12.30;8.70;;;333.10;2329.60;;;;;;5035434;28;20025;-79
2023/04/18 01:57:12;;;;;;;11.00;8.45;;;333.00;2329.60;;;;;;5035217;28;20029;-80
2023/04/18 01:59:38;;;;;;;13.18;9.52;;;332.90;2329.60;;;;;;5034907;28;20036;-80
2023/04/18 02:02:03;;;;;;;11.35;8.35;;;332.80;2329.60;;;;;;5035169;28;20021;-81
2023/04/18 02:04:29;;;;;;;12.02;7.88;;;332.80;2329.60;;;;;;5053435;28;20029;-81
2023/04/18 02:06:55;;;;;;;12.43;7.82;;;332.80;2329.60;;;;;;5035053;28;20578;-79
2023/04/18 02:09:21;;;;;;;11.75;8.27;;;332.90;2329.60;;;;;;5035393;28;20029;-83
2023/04/18 02:11:46;;;;;;;11.55;9.10;;;332.80;2329.60;;;;;;5035358;28;20052;-78
2023/04/18 02:14:12;;;;;;;11.15;8.55;;;332.80;2329.60;;;;;;5034888;28;20036;-82
2023/04/18 02:16:38;;;;;;;11.90;8.20;;;332.80;2329.60;;;;;;5035111;28;20039;-81
2023/04/18 02:19:05;;;;;;;11.68;9.25;;;332.80;2329.60;;;;;;5034818;28;20036;-80
2023/04/18 02:21:30;;;;;;;10.90;8.32;;;332.90;2329.60;;;;;;5052990;28;20017;-80
2023/04/18 02:23:56;;;;;;;11.38;7.85;;;332.90;2329.60;;;;;;5035134;28;20147;-79
2023/04/18 02:26:22;;;;;;;14.30;9.32;;;332.90;2329.60;;;;;;5034790;28;20098;-77
2023/04/18 02:28:48;;;;;;;13.25;10.20;;;332.90;2329.60;;;;;;5037922;28;20063;-77
2023/04/18 02:31:15;;;;;;;12.23;8.45;;;307.90;2304.00;;;;;;5038569;28;20033;-82
2023/04/18 02:33:42;;;;;;;15.15;11.10;;;332.90;2329.60;;;;;;5038257;28;20078;-81
2023/04/18 02:36:08;;;;;;;9.93;6.35;;;332.90;2329.60;;;;;;5038480;28;20039;-80
2023/04/18 02:38:34;;;;;;;7.10;4.50;;;308.10;2304.00;;;;;;5038092;28;20041;-80
2023/04/18 02:41:00;;;;;;;14.10;8.70;;;332.80;2329.60;;;;;;5055948;28;20032;-79
2023/04/18 02:43:25;;;;;;;18.00;14.07;;;332.90;2329.60;;;;;;5038089;28;20067;-79
2023/04/18 02:45:51;;;;;;;17.60;13.77;;;332.90;2329.60;;;;;;5038140;28;20021;-79
2023/04/18 02:48:17;;;;;;;12.73;10.13;;;332.90;2329.60;;;;;;5038066;28;20166;-80
2023/04/18 02:50:43;;;;;;;13.18;10.30;;;332.80;2329.60;;;;;;5036377;28;20477;-79
2023/04/18 02:53:09;;;;;;;13.43;10.40;;;308.10;2304.00;;;;;;5037797;28;20464;-80
2023/04/18 02:55:35;;;;;;;20.02;13.98;;;332.80;2329.60;;;;;;5037087;28;20040;-81
2023/04/18 02:58:01;;;;;;;19.80;14.45;;;308.10;2304.00;;;;;;5038085;28;20037;-80
2023/04/18 03:00:27;;;;;;;17.52;14.07;;;308.10;2304.00;;;;;;5038099;28;20029;-80
2023/04/18 03:02:53;;;;;;;13.73;11.77;;;308.10;2304.00;;;;;;5055609;28;20032;-80
2023/04/18 03:05:19;;;;;;;11.68;7.47;;;308.10;2304.00;;;;;;5038022;28;20384;-79
2023/04/18 03:07:44;;;;;;;10.80;8.35;;;308.10;2304.00;;;;;;5037873;28;20424;-80
2023/04/18 03:10:10;;;;;;;11.38;7.80;;;308.10;2304.00;;;;;;5055694;28;20025;-80
2023/04/18 03:12:36;;;;;;;11.13;6.13;;;308.10;2304.00;;;;;;5037856;28;20488;-80
2023/04/18 03:15:02;;;;;;;9.43;6.13;;;308.10;2304.00;;;;;;5037640;28;20033;-79
2023/04/18 03:17:28;;;;;;;14.63;10.05;;;308.10;2304.00;;;;;;5037594;28;20124;-80
2023/04/18 03:19:53;;;;;;;16.30;12.57;;;308.10;2304.00;;;;;;5037668;28;20021;-81
2023/04/18 03:22:19;;;;;;;17.88;12.95;;;308.00;2304.00;;;;;;5054914;28;20094;-80
2023/04/18 03:24:45;;;;;;;15.95;12.13;;;308.10;2304.00;;;;;;5037739;28;20489;-80
2023/04/18 03:27:12;;;;;;;15.25;11.80;;;308.10;2304.00;;;;;;5037429;28;20461;-80
2023/04/18 03:29:38;;;;;;;11.60;9.20;;;308.10;2304.00;;;;;;5037702;28;20032;-80
2023/04/18 03:32:04;;;;;;;11.18;8.48;;;308.10;2304.00;;;;;;5037440;28;20029;-80
2023/04/18 03:34:29;;;;;;;8.50;5.50;;;308.10;2304.00;;;;;;5037760;28;20052;-79
2023/04/18 03:36:55;;;;;;;6.43;4.57;;;308.00;2304.00;;;;;;5037005;28;20469;-81
2023/04/18 03:39:21;;;;;;;7.10;4.43;;;308.00;2304.00;;;;;;5013451;28;20042;-82
2023/04/18 03:41:48;;;;;;;7.75;5.47;;;308.10;2304.00;;;;;;5014553;28;20022;-80
2023/04/18 03:44:14;;;;;;;11.65;7.70;;;308.10;2304.00;;;;;;5015630;28;20045;-81
2023/04/18 03:46:40;;;;;;;14.02;8.65;;;308.10;2304.00;;;;;;5014060;28;20030;-80
2023/04/18 03:49:06;;;;;;;11.45;7.00;;;308.10;2304.00;;;;;;5015710;28;20037;-78
2023/04/18 03:51:40;;;;;;;11.30;7.05;;;308.10;2304.00;;;;;;5013832;28;20080;-80
2023/04/18 03:54:06;;;;;;;10.85;6.60;;;308.10;2304.00;;;;;;5014101;28;20022;-78
2023/04/18 03:56:32;;;;;;;9.93;6.10;;;308.10;2304.00;;;;;;5013899;28;20057;-80
2023/04/18 03:58:57;;;;;;;10.55;6.47;;;308.10;2304.00;;;;;;5013719;28;20137;-80
2023/04/18 04:01:23;;;;;;;10.77;5.90;;;332.80;2329.60;;;;;;5015370;28;20022;-79
2023/04/18 04:03:49;;;;;;;8.73;5.57;;;332.80;2329.60;;;;;;5015061;28;20101;-80
2023/04/18 04:06:16;;;;;;;10.23;6.13;;;332.80;2329.60;;;;;;5013373;28;20465;-81
2023/04/18 04:08:42;;;;;;;10.15;6.03;;;332.80;2329.60;;;;;;5013670;28;20026;-82
2023/04/18 04:11:08;;;;;;;10.75;5.43;;;308.10;2304.00;;;;;;5013300;28;20036;-81
2023/04/18 04:13:34;;;;;;;8.30;4.90;;;308.10;2304.00;;;;;;5015136;28;20100;-81
2023/04/18 04:16:00;;;;;;;8.15;4.88;;;308.10;2304.00;;;;;;5013504;28;20053;-80
2023/04/18 04:18:29;;;;;;;6.28;4.28;;;332.80;2329.60;;;;;;5014535;28;20030;-80
2023/04/18 04:20:59;;;;;;;6.88;4.65;;;308.00;2304.00;;;;;;5013418;28;20026;-82
2023/04/18 04:23:25;;;;;;;10.85;5.75;;;308.00;2304.00;;;;;;5013487;28;20033;-82
2023/04/18 04:25:54;;;;;;;30.48;17.92;;;307.90;2304.00;;;;;;5014254;28;20370;-81
2023/04/18 04:28:21;;;;;;;39.33;23.60;;;307.90;2304.00;;;;;;5011477;28;20048;-82
2023/04/18 04:30:50;;;;;;;18.33;11.25;;;307.90;2304.00;;;;;;5013052;28;20030;-83
2023/04/18 04:33:20;;;;;;;14.55;9.40;;;307.90;2304.00;;;;;;5012169;28;20034;-82
2023/04/18 04:35:46;;;;;;;16.73;11.43;;;307.80;2304.00;;;;;;5013265;28;20398;-82
2023/04/18 04:38:15;;;;;;;13.40;9.80;;;307.90;2304.00;;;;;;5035456;28;20041;-81
2023/04/18 04:40:41;;;;;;;15.60;10.23;;;307.90;2304.00;;;;;;5035902;28;20380;-82
2023/04/18 04:43:15;;;;;;;16.20;10.50;;;307.90;2304.00;;;;;;5036082;28;20025;-80
2023/04/18 04:45:41;;;;;;;15.73;9.32;;;308.00;2304.00;;;;;;5036189;28;20036;-82
2023/04/18 04:48:08;;;;;;;11.05;6.80;;;307.90;2304.00;;;;;;5035769;28;20025;-81
2023/04/18 04:50:39;;;;;;;11.02;6.88;;;307.90;2304.00;;;;;;5035146;28;20021;-83
2023/04/18 04:53:05;;;;;;;11.35;6.55;;;308.00;2304.00;;;;;;5035577;28;20033;-82
2023/04/18 04:55:32;;;;;;;11.27;6.78;;;308.00;2304.00;;;;;;5034830;28;20032;-82
2023/04/18 04:57:58;;;;;;;12.07;7.70;;;308.00;2304.00;;;;;;5035059;28;20614;-82
2023/04/18 05:00:24;;;;;;;8.20;5.85;;;308.00;2304.00;;;;;;5035251;28;20029;-82
2023/04/18 05:02:52;;;;;;;7.78;5.40;;;307.90;2304.00;;;;;;5034691;28;20044;-80
2023/04/18 05:05:18;;;;;;;7.68;5.55;;;307.80;2304.00;;;;;;5035772;28;20384;-81
2023/04/18 05:07:44;;;;;;;10.48;7.07;;;307.80;2304.00;;;;;;5035485;28;20025;-82
2023/04/18 05:10:10;;;;;;;8.65;5.78;;;307.80;2304.00;;;;;;5035773;28;20484;-77
2023/04/18 05:12:35;;;;;;;6.45;4.47;;;307.80;2304.00;;;;;;5035769;28;20102;-79
2023/04/18 05:15:02;;;;;;;6.80;5.13;;;307.80;2304.00;;;;;;5035575;28;20021;-79
2023/04/18 05:17:28;;;;;;;9.65;4.80;;;307.80;2304.00;;;;;;5035708;28;20033;-81
2023/04/18 05:19:53;;;;;;;7.78;5.38;;;307.80;2304.00;;;;;;5035882;28;20453;-79
2023/04/18 05:22:19;;;;;;;7.88;4.63;;;307.80;2304.00;;;;;;5035086;28;20021;-82
2023/04/18 05:24:45;;;;;;;8.63;5.70;;;307.90;2304.00;;;;;;5035413;28;20170;-80
2023/04/18 05:27:15;;;;;;;7.32;5.53;;;307.90;2304.00;;;;;;5053205;28;20052;-79
2023/04/18 05:29:40;;;;;;;10.63;6.90;;;308.00;2304.00;;;;;;5035334;28;20021;-80
2023/04/18 05:32:06;;;;;;;10.68;6.65;;;308.00;2304.00;;;;;;5035698;28;20021;-82
2023/04/18 05:34:35;;;;;;;11.38;6.55;;;308.00;2304.00;;;;;;5035533;28;20107;-83
2023/04/18 05:37:00;;;;;;;11.45;6.53;;;307.90;2304.00;;;;;;5034766;28;20059;-81
2023/04/18 05:39:26;;;;;;;10.93;7.15;;;307.90;2304.00;;;;;;5053449;28;20057;-82
2023/04/18 05:41:52;;;;;;;8.75;6.13;;;307.90;2304.00;;;;;;5035571;28;20025;-80
2023/04/18 05:44:18;;;;;;;13.65;9.23;;;307.90;2304.00;;;;;;5035219;28;20026;-81
2023/04/18 05:46:45;;;;;;;11.82;7.70;;;307.90;2304.00;;;;;;5035407;28;20465;-80
2023/04/18 05:49:11;;;;;;;9.32;5.72;;;308.00;2304.00;;;;;;5035611;28;20025;-81
2023/04/18 05:51:37;;;;;;;16.40;8.90;;;308.00;2304.00;;;;;;5036427;28;20025;-79
2023/04/18 05:54:04;;;;;;;10.02;7.18;;;308.00;2304.00;;;;;;5053028;28;20480;-82
2023/04/18 05:56:30;;;;;;;9.20;5.15;;;308.00;2304.00;;;;;;5035355;28;20033;-82
2023/04/18 05:58:55;;;;;;;11.35;7.15;;;308.00;2304.00;;;;;;5036015;28;20060;-81
2023/04/18 06:01:21;;;;;;;11.10;6.28;;;308.00;2304.00;;;;;;5054603;28;20033;-81
2023/04/18 06:03:47;;;;;;;8.70;6.05;;;308.10;2304.00;;;;;;5039898;28;20071;-80
2023/04/18 06:06:13;;;;;;;9.63;5.88;;;308.10;2304.00;;;;;;5039418;28;20040;-79
2023/04/18 06:08:39;;;;;;;9.10;5.85;;;308.10;2304.00;;;;;;5039305;28;20484;-78
2023/04/18 06:11:05;;;;;;;9.40;5.75;;;308.10;2304.00;;;;;;5056792;28;20461;-77
2023/04/18 06:13:31;;;;;;;7.93;5.18;;;308.10;2304.00;;;;;;5039059;28;20025;-79
2023/04/18 06:15:57;;;;;;;8.52;5.43;;;308.10;2304.00;;;;;;5039064;28;20429;-80
2023/04/18 06:18:23;;;;;;;6.40;4.88;;;332.80;2329.60;;;;;;5038529;28;20035;-80
2023/04/18 06:20:49;;;;;;;6.07;4.22;;;332.90;2329.60;;;;;;5056414;28;20025;-79
2023/04/18 06:23:15;;;;;;;6.00;3.80;;;332.90;2329.60;;;;;;5056724;28;20090;-81
2023/04/18 06:25:41;;;;;;;6.93;4.28;;;333.00;2329.60;;;;;;5038595;28;20083;-81
2023/04/18 06:28:07;;;;;;;10.15;6.47;;;333.00;2329.60;;;;;;5055556;28;20040;-79
2023/04/18 06:30:33;;;;;;;10.45;6.68;;;333.00;2329.60;;;;;;5049454;28;20076;-81
2023/04/18 06:32:59;;;;;;;12.63;8.43;;;333.00;2329.60;;;;;;5035800;28;20029;-80
2023/04/18 06:35:25;;;;;;;14.32;8.73;;;333.00;2329.60;;;;;;5035436;28;20033;-79
2023/04/18 06:37:51;;;;;;;11.25;6.53;;;333.10;2329.60;;;;;;5035018;28;20053;-82
2023/04/18 06:40:17;;;;;;;10.55;6.32;;;333.10;2329.60;;;;;;5034899;28;20026;-80
2023/04/18 06:42:43;;;;;;;9.95;5.50;;;333.10;2329.60;;;;;;5035280;28;20032;-79
2023/04/18 06:45:11;;;;;;;11.82;5.45;;;333.20;2329.60;;;;;;5034801;28;20025;-78
2023/04/18 06:47:39;;;;;;;5.75;3.78;;;333.20;2329.60;;;;;;5036291;28;20030;-78
2023/04/18 06:50:06;;;;;;;5.85;3.65;;;333.10;2329.60;;;;;;5034984;28;20497;-79
2023/04/18 06:52:31;;;;;;;9.93;6.32;;;333.20;2329.60;;;;;;5034222;28;20040;-77
2023/04/18 06:54:57;;;;;;;13.38;8.27;;;333.10;2329.60;;;;;;5034845;28;20025;-77
2023/04/18 06:57:23;;;;;;;8.63;4.75;;;333.10;2329.60;;;;;;5038053;28;20130;-79
2023/04/18 06:59:49;;;;;;;7.03;4.68;;;333.10;2329.60;;;;;;5036901;28;20029;-79
2023/04/18 07:02:14;;;;;;;5.45;3.78;;;333.10;2329.60;;;;;;5036839;28;20485;-81
2023/04/18 07:04:40;;;;;;;7.05;4.85;;;333.10;2329.60;;;;;;5037624;28;20025;-80
2023/04/18 07:07:06;;;;;;;8.95;5.63;;;333.20;2329.60;;;;;;5037619;28;20041;-82
2023/04/18 07:09:32;;;;;;;10.18;6.97;;;333.20;2329.60;;;;;;5037875;28;20036;-81
2023/04/18 07:11:58;;;;;;;10.05;6.25;;;333.20;2329.60;;;;;;5037891;28;20025;-81
2023/04/18 07:14:24;;;;;;;10.82;6.72;;;333.20;2329.60;;;;;;5036129;28;20461;-80
2023/04/18 07:16:50;;;;;;;12.50;7.07;;;333.20;2329.60;;;;;;5037577;28;20029;-78
2023/04/18 07:19:16;;;;;;;11.43;6.78;;;333.40;2329.60;;;;;;5037758;28;20144;-82
2023/04/18 07:21:43;;;;;;;10.93;5.93;;;333.40;2329.60;;;;;;5055220;28;20026;-80
2023/04/18 07:24:10;;;;;;;8.07;4.75;;;333.40;2329.60;;;;;;5037583;28;20373;-78
2023/04/18 07:26:36;;;;;;;10.95;6.95;;;333.40;2329.60;;;;;;5037479;28;20544;-79
2023/04/18 07:29:02;;;;;;;14.77;8.35;;;333.40;2329.60;;;;;;5037244;28;20032;-80
2023/04/18 07:31:29;;;;;;;12.00;7.18;;;333.50;2329.60;;;;;;5055298;28;20021;-79
2023/04/18 07:33:56;;;;;;;13.50;8.55;;;333.50;2329.60;;;;;;5037393;28;20586;-77
2023/04/18 07:36:22;;;;;;;15.57;10.23;;;333.60;2329.60;;;;;;5036944;28;20121;-79
2023/04/18 07:38:48;;;;;;;12.90;9.25;;;333.60;2329.60;;;;;;5036876;28;20144;-80
2023/04/18 07:41:14;;;;;;;14.73;8.98;;;333.60;2329.60;;;;;;5037004;28;20025;-79
2023/04/18 07:43:40;;;;;;;11.07;7.22;;;333.60;2329.60;;;;;;5036970;28;20045;-78
2023/04/18 07:46:06;;;;;;;9.57;6.82;;;333.70;2329.60;;;;;;5037425;28;20061;-78
2023/04/18 07:48:32;;;;;;;7.55;4.55;;;333.70;2329.60;;;;;;5054814;28;20029;-79
2023/04/18 07:50:58;;;;;;;9.98;5.75;;;358.40;2329.60;;;;;;5035343;28;20037;-80
2023/04/18 07:53:24;;;;;;;9.13;5.45;;;358.40;2329.60;;;;;;5036622;28;20108;-80
2023/04/18 07:55:50;;;;;;;20.13;17.98;;;358.40;2329.60;;;;;;5053592;28;20104;-81
2023/04/18 07:58:16;;;;;;;8.80;5.63;;;358.40;2329.60;;;;;;5036571;28;20441;-81
2023/04/18 08:00:43;;;;;;;8.18;5.68;;;358.40;2329.60;;;;;;5055080;28;20056;-82
2023/04/18 08:03:10;;;;;;;10.55;5.95;;;358.50;2329.60;;;;;;5035650;28;20053;-85
2023/04/18 08:05:38;;;;;;;8.00;4.53;;;358.60;2329.60;;;;;;5031050;28;20029;-81
2023/04/18 08:08:06;;;;;;;10.63;7.97;;;358.60;2329.60;;;;;;5054404;28;20043;-81
2023/04/18 08:10:33;;;;;;;13.98;7.40;;;358.60;2329.60;;;;;;5035798;28;20044;-82
2023/04/18 08:12:59;;;;;;;12.38;8.45;;;358.60;2329.60;;;;;;5054213;28;20028;-82
2023/04/18 08:15:26;;;;;;;12.90;9.70;;;358.60;2329.60;;;;;;5051817;28;20057;-79
2023/04/18 08:17:52;;;;;;;10.40;6.72;;;358.70;2329.60;;;;;;5048851;28;20025;-79
2023/04/18 08:20:18;;;;;;;6.93;4.68;;;358.70;2329.60;;;;;;5024726;28;20155;-79
2023/04/18 08:22:44;;;;;;;6.88;5.10;;;358.60;2329.60;;;;;;5029445;28;20032;-78
2023/04/18 08:25:11;;;;;;;9.10;6.10;;;358.70;2329.60;;;;;;5035362;28;20036;-79
2023/04/18 08:27:36;;;;;;;11.65;6.95;;;358.80;2329.60;;;;;;5037458;28;20032;-76
2023/04/18 08:30:03;;;;;;;8.38;5.85;;;358.80;2329.60;;;;;;5047239;28;20023;-78
2023/04/18 08:32:34;;;;;;;8.75;5.10;;;358.80;2329.60;;;;;;5043608;28;20029;-77
2023/04/18 08:35:00;;;;;;;8.82;4.60;;;358.80;2329.60;;;;;;5021840;28;20025;-79
2023/04/18 08:37:26;;;;;;;5.35;3.50;;;358.80;2329.60;;;;;;5051013;28;20045;-77
2023/04/18 08:39:52;;;;;;;7.15;4.30;;;358.80;2329.60;;;;;;5037479;28;20071;-84
2023/04/18 08:42:20;;;;;;;10.75;5.25;;;358.70;2329.60;;;;;;5054352;28;20029;-84
2023/04/18 08:44:47;;;;;;;9.55;6.15;;;358.80;2329.60;;;;;;5036422;28;20028;-84
2023/04/18 08:47:13;;;;;;;12.55;7.53;;;358.70;2329.60;;;;;;5020476;28;20033;-85
2023/04/18 08:49:41;;;;;;;12.45;7.18;;;358.70;2329.60;;;;;;5033030;28;20108;-85
2023/04/18 08:52:12;;;;;;;11.35;7.38;;;358.70;2329.60;;;;;;5016944;28;20462;-85
2023/04/18 08:54:43;;;;;;;14.05;8.35;;;358.80;2329.60;;;;;;5016952;28;20047;-85
2023/04/18 08:57:32;;;;;;;10.30;7.10;;;358.80;2329.60;;;;;;5031816;28;20036;-85
2023/04/18 08:59:59;;;;;;;5.88;3.88;;;358.80;2329.60;;;;;;5039549;28;20029;-85
2023/04/18 09:02:43;;;;;;;9.77;6.10;;;358.80;2329.60;;;;;;5036475;28;20033;-84
2023/04/18 09:05:17;;;;;;;8.95;6.03;;;358.80;2329.60;;;;;;5032371;28;20037;-84
2023/04/18 09:07:44;;;;;;;11.10;7.22;;;358.80;2329.60;;;;;;5020336;28;20029;-86
2023/04/18 09:10:11;;;;;;;11.27;5.32;;;358.80;2329.60;;;;;;5036112;28;20479;-86
2023/04/18 09:12:49;;;;;;;10.27;6.72;;;358.80;2329.60;;;;;;5042900;28;20026;-85
2023/04/18 09:15:19;;;;;;;10.55;6.43;;;358.80;2329.60;;;;;;5048946;28;20098;-85
2023/04/18 09:17:51;;;;;;;11.63;6.90;;;358.80;2329.60;;;;;;5034791;28;20056;-86
2023/04/18 09:20:36;;;;;;;9.88;6.50;;;358.80;2329.60;;;;;;5016490;28;20062;-85
2023/04/18 09:23:04;;;;;;;10.73;8.05;;;358.80;2329.60;;;;;;5040530;28;20021;-88
2023/04/18 09:25:36;;;;;;;16.15;9.20;;;358.80;2329.60;;;;;;5036978;28;20488;-82
2023/04/18 09:28:04;;;;;;;12.90;9.82;;;358.90;2329.60;;;;;;5053191;28;20468;-82
2023/04/18 09:30:33;;;;;;;15.27;9.23;;;358.90;2329.60;;;;;;5030864;28;20040;-82
2023/04/18 09:33:00;;;;;;;18.98;13.38;;;359.00;2329.60;;;;;;5035428;28;20473;-82
2023/04/18 09:35:26;;;;;;;19.52;12.02;;;359.00;2329.60;;;;;;5018788;28;20030;-86
2023/04/18 09:37:52;;;;;;;27.02;17.13;;;358.90;2329.60;;;;;;5019654;28;20045;-85
2023/04/18 09:40:19;;;;;;;20.55;14.23;;;358.90;2329.60;;;;;;5036443;28;20469;-85
2023/04/18 09:42:46;;;;;;;15.52;10.90;;;358.90;2329.60;;;;;;5036660;28;20119;-85
2023/04/18 09:45:14;;;;;;;14.55;9.48;;;358.90;2329.60;;;;;;5036689;28;20025;-85
2023/04/18 09:47:39;;;;;;;12.57;8.63;;;358.90;2329.60;;;;;;5033501;28;20030;-86
2023/04/18 09:50:09;;;;;;;14.35;10.02;;;358.90;2329.60;;;;;;5016937;28;20026;-87
2023/04/18 09:52:39;;;;;;;10.43;7.53;;;358.80;2329.60;;;;;;5028866;28;20026;-86
2023/04/18 09:55:08;;;;;;;11.57;8.68;;;358.90;2329.60;;;;;;5037384;28;20029;-86
2023/04/18 09:57:35;;;;;;;12.55;8.32;;;358.80;2329.60;;;;;;5051623;28;20036;-87
2023/04/18 10:00:16;;;;;;;13.88;8.80;;;358.90;2329.60;;;;;;5036223;28;20120;-83
2023/04/18 10:02:57;;;;;;;12.20;8.27;;;359.00;2329.60;;;;;;5037171;28;20100;-83
2023/04/18 10:05:34;;;;;;;18.30;14.13;;;359.00;2329.60;;;;;;5019726;28;20033;-83
2023/04/18 10:08:01;;;;;;;23.30;15.18;;;359.10;2329.60;;;;;;5029968;28;20026;-85
2023/04/18 10:10:27;;;;;;;12.93;8.68;;;359.00;2329.60;;;;;;5025709;28;20476;-83
2023/04/18 10:12:55;;;;;;;11.70;7.95;;;359.00;2329.60;;;;;;5037332;28;20025;-83
2023/04/18 10:15:25;;;;;;;13.43;9.07;;;359.00;2329.60;;;;;;5035370;28;20037;-81
2023/04/18 10:17:59;;;;;;;11.35;6.57;;;359.00;2329.60;;;;;;5015743;28;20042;-81
2023/04/18 10:20:30;;;;;;;9.88;7.35;;;359.00;2329.60;;;;;;5017677;28;20408;-84
2023/04/18 10:22:57;;;;;;;13.02;7.82;;;359.10;2329.60;;;;;;5016298;28;20053;-82
2023/04/18 10:25:37;;;;;;;12.88;8.93;;;359.20;2329.60;;;;;;5017203;28;20030;-82
2023/04/18 10:28:05;;;;;;;9.82;6.80;;;359.20;2329.60;;;;;;5015986;28;20034;-83
2023/04/18 10:30:43;;;;;;;9.27;6.07;;;359.20;2329.60;;;;;;5015980;28;20034;-82
2023/04/18 10:33:34;;;;;;;14.40;8.27;;;359.20;2329.60;;;;;;5015913;28;20470;-83
2023/04/18 10:36:04;;;;;;;9.52;5.95;;;359.30;2329.60;;;;;;5016349;28;20025;-86
2023/04/18 10:38:31;;;;;;;12.38;9.60;;;359.20;2329.60;;;;;;5029845;28;20052;-82
2023/04/18 10:41:25;;;;;;;12.80;10.15;;;359.20;2329.60;;;;;;5018589;28;20030;-80
2023/04/18 10:44:14;;;;;;;8.85;6.18;;;359.10;2329.60;;;;;;5018915;28;20040;-80
2023/04/18 10:47:02;;;;;;;9.95;6.65;;;359.10;2329.60;;;;;;5018578;28;20044;-81
2023/04/18 10:49:30;;;;;;;13.40;8.88;;;359.10;2329.60;;;;;;5035696;28;20025;-80
2023/04/18 10:52:00;;;;;;;6.93;4.28;;;359.10;2329.60;;;;;;5018135;28;20029;-79
2023/04/18 10:54:42;;;;;;;11.98;7.68;;;359.10;2329.60;;;;;;5035907;28;20033;-80
2023/04/18 10:57:09;;;;;;;18.67;11.48;;;359.20;2329.60;;;;;;5018726;28;20092;-81
2023/04/18 10:59:38;;;;;;;11.35;8.60;;;359.20;2329.60;;;;;;5018463;28;20030;-79
2023/04/18 11:02:24;;;;;;;12.60;7.50;;;384.00;2329.60;;;;;;5017948;28;20034;-81
2023/04/18 11:04:52;;;;;;;14.88;8.32;;;384.00;2329.60;;;;;;5018391;28;20116;-81
2023/04/18 11:07:18;;;;;;;8.43;5.07;;;384.00;2329.60;;;;;;5018294;28;20395;-81
2023/04/18 11:09:52;;;;;;;11.23;7.00;;;384.00;2329.60;;;;;;5017829;28;20029;-80
2023/04/18 11:12:18;;;;;;;9.65;6.00;;;359.30;2329.60;;;;;;5018075;28;20025;-80
2023/04/18 11:14:50;;;;;;;9.77;6.05;;;384.00;2329.60;;;;;;5035441;28;20037;-82
2023/04/18 11:17:28;;;;;;;9.50;5.88;;;384.00;2329.60;;;;;;5017992;28;20038;-79
2023/04/18 11:20:11;;;;;;;20.85;16.05;;;359.30;2329.60;;;;;;5035725;28;20350;-83
2023/04/18 11:22:59;;;;;;;16.02;14.32;;;384.00;2329.60;;;;;;5033507;28;20461;-83
2023/04/18 11:25:30;;;;;;;11.07;7.45;;;384.00;2329.60;;;;;;5018270;28;20025;-84
2023/04/18 11:28:01;;;;;;;8.85;5.60;;;359.30;2329.60;;;;;;5018094;28;20036;-82
2023/04/18 11:30:35;;;;;;;12.07;7.90;;;384.00;2329.60;;;;;;5017641;28;20025;-83
2023/04/18 11:33:08;;;;;;;13.25;8.45;;;384.20;2329.60;;;;;;5018032;28;20029;-82
2023/04/18 11:35:41;;;;;;;16.35;9.68;;;384.20;2329.60;;;;;;5017893;28;20072;-81
2023/04/18 11:38:09;;;;;;;10.65;7.07;;;384.20;2329.60;;;;;;5028505;28;20045;-82
2023/04/18 11:40:35;;;;;;;10.38;7.15;;;384.30;2329.60;;;;;;5037588;28;20025;-84
2023/04/18 11:43:02;;;;;;;11.63;6.88;;;384.20;2329.60;;;;;;5020574;28;20047;-84
2023/04/18 11:45:28;;;;;;;10.25;6.05;;;384.20;2329.60;;;;;;5033428;28;20108;-82
2023/04/18 11:47:57;;;;;;;10.70;7.43;;;384.20;2329.60;;;;;;5042480;28;20052;-82
2023/04/18 11:50:23;;;;;;;13.13;8.95;;;384.30;2329.60;;;;;;5038180;28;20029;-85
2023/04/18 11:52:50;;;;;;;12.07;7.75;;;384.50;2329.60;;;;;;5037680;28;20079;-86
2023/04/18 11:55:22;;;;;;;9.32;6.60;;;384.30;2329.60;;;;;;5037305;28;20025;-86
2023/04/18 11:57:52;;;;;;;15.45;8.57;;;384.30;2329.60;;;;;;5033889;28;20365;-83
2023/04/18 12:00:31;;;;;;;30.50;20.25;;;384.30;2329.60;;;;;;5034081;28;20389;-80
2023/04/18 12:02:58;;;;;;;41.53;26.35;;;384.20;2329.60;;;;;;5036356;28;20048;-82
2023/04/18 12:05:35;;;;;;;28.02;19.35;;;384.20;2329.60;;;;;;5031751;28;20017;-82
2023/04/18 12:08:12;;;;;;;23.52;15.05;;;384.10;2329.60;;;;;;5042651;28;20021;-82
2023/04/18 12:10:50;;;;;;;32.10;20.55;;;384.00;2329.60;;;;;;5036885;28;20372;-82